sensor_id;sensor_type;location;lat;lon;timestamp;P1;durP1;ratioP1;P2;durP2;ratioP2
27209;SDS011;14721;42.668;23.386;2023-04-15T00:00:42;2.93;;;1.33;;
27209;SDS011;14721;42.668;23.386;2023-04-15T00:03:07;6.77;;;1.63;;
27209;SDS011;14721;42.668;23.386;2023-04-15T00:05:33;3.67;;;1.37;;
27209;SDS011;14721;42.668;23.386;2023-04-15T00:07:59;1.67;;;0.90;;
27209;SDS011;14721;42.668;23.386;2023-04-15T00:10:25;2.70;;;1.27;;
27209;SDS011;14721;42.668;23.386;2023-04-15T00:12:51;3.57;;;1.30;;
27209;SDS011;14721;42.668;23.386;2023-04-15T00:15:17;3.37;;;1.73;;
27209;SDS011;14721;42.668;23.386;2023-04-15T00:17:43;2.97;;;0.97;;
27209;SDS011;14721;42.668;23.386;2023-04-15T00:20:08;4.87;;;1.40;;
27209;SDS011;14721;42.668;23.386;2023-04-15T00:22:34;4.60;;;1.83;;
27209;SDS011;14721;42.668;23.386;2023-04-15T00:25:00;4.53;;;1.80;;
27209;SDS011;14721;42.668;23.386;2023-04-15T00:27:26;3.77;;;1.53;;
27209;SDS011;14721;42.668;23.386;2023-04-15T00:29:52;3.17;;;1.40;;
27209;SDS011;14721;42.668;23.386;2023-04-15T00:32:18;4.33;;;1.40;;
27209;SDS011;14721;42.668;23.386;2023-04-15T00:34:44;2.73;;;1.43;;
27209;SDS011;14721;42.668;23.386;2023-04-15T00:37:10;4.20;;;1.60;;
27209;SDS011;14721;42.668;23.386;2023-04-15T00:39:35;4.77;;;2.03;;
27209;SDS011;14721;42.668;23.386;2023-04-15T00:42:01;3.93;;;1.57;;
27209;SDS011;14721;42.668;23.386;2023-04-15T00:44:28;5.23;;;2.37;;
27209;SDS011;14721;42.668;23.386;2023-04-15T00:46:54;2.30;;;1.40;;
27209;SDS011;14721;42.668;23.386;2023-04-15T00:49:21;5.43;;;2.00;;
27209;SDS011;14721;42.668;23.386;2023-04-15T00:51:47;3.30;;;1.60;;
27209;SDS011;14721;42.668;23.386;2023-04-15T00:54:13;5.80;;;1.80;;
27209;SDS011;14721;42.668;23.386;2023-04-15T00:56:39;3.77;;;1.80;;
27209;SDS011;14721;42.668;23.386;2023-04-15T00:59:05;2.60;;;1.30;;
27209;SDS011;14721;42.668;23.386;2023-04-15T01:01:32;5.03;;;1.70;;
27209;SDS011;14721;42.668;23.386;2023-04-15T01:03:59;3.37;;;1.47;;
27209;SDS011;14721;42.668;23.386;2023-04-15T01:06:25;4.20;;;1.37;;
27209;SDS011;14721;42.668;23.386;2023-04-15T01:08:52;4.47;;;1.57;;
27209;SDS011;14721;42.668;23.386;2023-04-15T01:11:22;4.70;;;1.63;;
27209;SDS011;14721;42.668;23.386;2023-04-15T01:13:49;5.73;;;2.20;;
27209;SDS011;14721;42.668;23.386;2023-04-15T01:16:16;5.17;;;2.13;;
27209;SDS011;14721;42.668;23.386;2023-04-15T01:18:43;5.87;;;2.20;;
27209;SDS011;14721;42.668;23.386;2023-04-15T01:21:08;4.77;;;2.27;;
27209;SDS011;14721;42.668;23.386;2023-04-15T01:23:35;4.63;;;1.80;;
27209;SDS011;14721;42.668;23.386;2023-04-15T01:26:02;5.20;;;1.97;;
27209;SDS011;14721;42.668;23.386;2023-04-15T01:28:29;4.00;;;1.60;;
27209;SDS011;14721;42.668;23.386;2023-04-15T01:31:18;4.60;;;1.73;;
27209;SDS011;14721;42.668;23.386;2023-04-15T01:33:44;5.50;;;1.87;;
27209;SDS011;14721;42.668;23.386;2023-04-15T01:36:11;3.70;;;1.97;;
27209;SDS011;14721;42.668;23.386;2023-04-15T01:38:36;4.87;;;1.57;;
27209;SDS011;14721;42.668;23.386;2023-04-15T01:41:03;6.60;;;2.27;;
27209;SDS011;14721;42.668;23.386;2023-04-15T01:43:29;5.47;;;1.57;;
27209;SDS011;14721;42.668;23.386;2023-04-15T01:45:54;3.17;;;1.87;;
27209;SDS011;14721;42.668;23.386;2023-04-15T01:48:20;3.43;;;1.60;;
27209;SDS011;14721;42.668;23.386;2023-04-15T01:50:47;4.57;;;2.00;;
27209;SDS011;14721;42.668;23.386;2023-04-15T01:53:12;6.23;;;1.77;;
27209;SDS011;14721;42.668;23.386;2023-04-15T01:55:38;6.10;;;2.10;;
27209;SDS011;14721;42.668;23.386;2023-04-15T01:58:03;3.60;;;1.57;;
27209;SDS011;14721;42.668;23.386;2023-04-15T02:00:29;3.17;;;1.37;;
27209;SDS011;14721;42.668;23.386;2023-04-15T02:02:56;3.90;;;1.50;;
27209;SDS011;14721;42.668;23.386;2023-04-15T02:05:23;4.60;;;1.80;;
27209;SDS011;14721;42.668;23.386;2023-04-15T02:07:49;6.40;;;2.00;;
27209;SDS011;14721;42.668;23.386;2023-04-15T02:10:15;6.67;;;2.10;;
27209;SDS011;14721;42.668;23.386;2023-04-15T02:12:40;7.30;;;1.70;;
27209;SDS011;14721;42.668;23.386;2023-04-15T02:15:06;4.17;;;1.70;;
27209;SDS011;14721;42.668;23.386;2023-04-15T02:17:33;4.53;;;1.80;;
27209;SDS011;14721;42.668;23.386;2023-04-15T02:19:59;4.90;;;1.73;;
27209;SDS011;14721;42.668;23.386;2023-04-15T02:22:25;2.80;;;1.33;;
27209;SDS011;14721;42.668;23.386;2023-04-15T02:24:51;3.30;;;1.50;;
27209;SDS011;14721;42.668;23.386;2023-04-15T02:27:17;4.43;;;1.97;;
27209;SDS011;14721;42.668;23.386;2023-04-15T02:29:43;2.70;;;1.73;;
27209;SDS011;14721;42.668;23.386;2023-04-15T02:32:10;4.20;;;2.03;;
27209;SDS011;14721;42.668;23.386;2023-04-15T02:34:36;4.77;;;2.10;;
27209;SDS011;14721;42.668;23.386;2023-04-15T02:37:09;4.83;;;2.43;;
27209;SDS011;14721;42.668;23.386;2023-04-15T02:39:35;3.50;;;1.80;;
27209;SDS011;14721;42.668;23.386;2023-04-15T02:42:01;5.30;;;1.70;;
27209;SDS011;14721;42.668;23.386;2023-04-15T02:44:29;4.60;;;1.90;;
27209;SDS011;14721;42.668;23.386;2023-04-15T02:46:55;4.60;;;1.97;;
27209;SDS011;14721;42.668;23.386;2023-04-15T02:49:22;5.70;;;2.10;;
27209;SDS011;14721;42.668;23.386;2023-04-15T02:51:48;4.70;;;1.90;;
27209;SDS011;14721;42.668;23.386;2023-04-15T02:54:18;5.97;;;2.13;;
27209;SDS011;14721;42.668;23.386;2023-04-15T02:56:46;6.00;;;1.87;;
27209;SDS011;14721;42.668;23.386;2023-04-15T02:59:12;6.87;;;2.70;;
27209;SDS011;14721;42.668;23.386;2023-04-15T03:01:38;6.37;;;2.83;;
27209;SDS011;14721;42.668;23.386;2023-04-15T03:04:03;7.30;;;3.23;;
27209;SDS011;14721;42.668;23.386;2023-04-15T03:06:29;9.57;;;3.10;;
27209;SDS011;14721;42.668;23.386;2023-04-15T03:08:55;9.20;;;3.50;;
27209;SDS011;14721;42.668;23.386;2023-04-15T03:11:21;5.47;;;2.60;;
27209;SDS011;14721;42.668;23.386;2023-04-15T03:13:46;5.30;;;3.00;;
27209;SDS011;14721;42.668;23.386;2023-04-15T03:16:12;5.13;;;3.00;;
27209;SDS011;14721;42.668;23.386;2023-04-15T03:18:37;8.07;;;3.20;;
27209;SDS011;14721;42.668;23.386;2023-04-15T03:21:03;8.10;;;3.03;;
27209;SDS011;14721;42.668;23.386;2023-04-15T03:23:29;5.43;;;2.63;;
27209;SDS011;14721;42.668;23.386;2023-04-15T03:25:55;6.50;;;2.43;;
27209;SDS011;14721;42.668;23.386;2023-04-15T03:28:22;7.20;;;3.07;;
27209;SDS011;14721;42.668;23.386;2023-04-15T03:30:48;9.70;;;4.03;;
27209;SDS011;14721;42.668;23.386;2023-04-15T03:33:14;5.83;;;2.53;;
27209;SDS011;14721;42.668;23.386;2023-04-15T03:35:39;4.20;;;2.43;;
27209;SDS011;14721;42.668;23.386;2023-04-15T03:38:05;5.73;;;2.60;;
27209;SDS011;14721;42.668;23.386;2023-04-15T03:40:31;6.23;;;2.80;;
27209;SDS011;14721;42.668;23.386;2023-04-15T03:42:56;6.40;;;2.97;;
27209;SDS011;14721;42.668;23.386;2023-04-15T03:45:22;6.20;;;2.60;;
27209;SDS011;14721;42.668;23.386;2023-04-15T03:47:47;5.67;;;2.67;;
27209;SDS011;14721;42.668;23.386;2023-04-15T03:50:13;6.27;;;3.00;;
27209;SDS011;14721;42.668;23.386;2023-04-15T03:52:39;6.23;;;2.80;;
27209;SDS011;14721;42.668;23.386;2023-04-15T03:55:05;3.80;;;2.70;;
27209;SDS011;14721;42.668;23.386;2023-04-15T03:57:32;5.57;;;2.13;;
27209;SDS011;14721;42.668;23.386;2023-04-15T04:00:03;8.23;;;2.53;;
27209;SDS011;14721;42.668;23.386;2023-04-15T04:02:30;8.33;;;3.10;;
27209;SDS011;14721;42.668;23.386;2023-04-15T04:04:55;5.57;;;2.90;;
27209;SDS011;14721;42.668;23.386;2023-04-15T04:07:22;5.93;;;2.50;;
27209;SDS011;14721;42.668;23.386;2023-04-15T04:09:48;5.33;;;2.70;;
27209;SDS011;14721;42.668;23.386;2023-04-15T04:12:14;3.63;;;1.97;;
27209;SDS011;14721;42.668;23.386;2023-04-15T04:14:39;4.93;;;2.50;;
27209;SDS011;14721;42.668;23.386;2023-04-15T04:17:23;5.13;;;2.90;;
27209;SDS011;14721;42.668;23.386;2023-04-15T04:19:48;4.70;;;2.30;;
27209;SDS011;14721;42.668;23.386;2023-04-15T04:22:14;5.63;;;2.60;;
27209;SDS011;14721;42.668;23.386;2023-04-15T04:24:39;4.63;;;1.97;;
27209;SDS011;14721;42.668;23.386;2023-04-15T04:27:05;6.30;;;2.40;;
27209;SDS011;14721;42.668;23.386;2023-04-15T04:29:30;6.07;;;3.27;;
27209;SDS011;14721;42.668;23.386;2023-04-15T04:31:56;3.80;;;2.33;;
27209;SDS011;14721;42.668;23.386;2023-04-15T04:34:21;9.50;;;4.13;;
27209;SDS011;14721;42.668;23.386;2023-04-15T04:36:46;7.47;;;2.83;;
27209;SDS011;14721;42.668;23.386;2023-04-15T04:39:13;6.07;;;3.07;;
27209;SDS011;14721;42.668;23.386;2023-04-15T04:41:40;9.40;;;5.47;;
27209;SDS011;14721;42.668;23.386;2023-04-15T04:44:07;19.27;;;10.40;;
27209;SDS011;14721;42.668;23.386;2023-04-15T04:46:32;6.70;;;3.80;;
27209;SDS011;14721;42.668;23.386;2023-04-15T04:48:58;12.77;;;7.37;;
27209;SDS011;14721;42.668;23.386;2023-04-15T04:51:23;11.57;;;5.23;;
27209;SDS011;14721;42.668;23.386;2023-04-15T04:53:49;7.20;;;3.60;;
27209;SDS011;14721;42.668;23.386;2023-04-15T04:56:14;8.33;;;3.03;;
27209;SDS011;14721;42.668;23.386;2023-04-15T04:58:40;6.67;;;3.77;;
27209;SDS011;14721;42.668;23.386;2023-04-15T05:01:06;8.07;;;4.00;;
27209;SDS011;14721;42.668;23.386;2023-04-15T05:03:31;12.00;;;4.43;;
27209;SDS011;14721;42.668;23.386;2023-04-15T05:05:57;10.70;;;4.63;;
27209;SDS011;14721;42.668;23.386;2023-04-15T05:08:23;5.67;;;3.70;;
27209;SDS011;14721;42.668;23.386;2023-04-15T05:10:48;8.73;;;4.47;;
27209;SDS011;14721;42.668;23.386;2023-04-15T05:13:17;12.23;;;5.13;;
27209;SDS011;14721;42.668;23.386;2023-04-15T05:15:42;14.80;;;7.00;;
27209;SDS011;14721;42.668;23.386;2023-04-15T05:18:08;13.93;;;7.23;;
27209;SDS011;14721;42.668;23.386;2023-04-15T05:20:34;13.67;;;5.90;;
27209;SDS011;14721;42.668;23.386;2023-04-15T05:23:00;14.18;;;7.32;;
27209;SDS011;14721;42.668;23.386;2023-04-15T05:25:25;15.70;;;6.65;;
27209;SDS011;14721;42.668;23.386;2023-04-15T05:27:51;11.90;;;6.00;;
27209;SDS011;14721;42.668;23.386;2023-04-15T05:30:17;8.95;;;4.22;;
27209;SDS011;14721;42.668;23.386;2023-04-15T05:32:42;6.82;;;3.47;;
27209;SDS011;14721;42.668;23.386;2023-04-15T05:35:08;7.97;;;3.92;;
27209;SDS011;14721;42.668;23.386;2023-04-15T05:37:33;8.77;;;3.33;;
27209;SDS011;14721;42.668;23.386;2023-04-15T05:39:59;7.82;;;3.78;;
27209;SDS011;14721;42.668;23.386;2023-04-15T05:42:25;7.43;;;3.85;;
27209;SDS011;14721;42.668;23.386;2023-04-15T05:44:50;6.57;;;3.75;;
27209;SDS011;14721;42.668;23.386;2023-04-15T05:47:15;11.70;;;3.63;;
27209;SDS011;14721;42.668;23.386;2023-04-15T05:49:41;6.75;;;3.60;;
27209;SDS011;14721;42.668;23.386;2023-04-15T05:52:06;6.40;;;2.97;;
27209;SDS011;14721;42.668;23.386;2023-04-15T05:54:32;5.70;;;2.75;;
27209;SDS011;14721;42.668;23.386;2023-04-15T05:56:57;4.60;;;2.80;;
27209;SDS011;14721;42.668;23.386;2023-04-15T05:59:23;7.43;;;3.67;;
27209;SDS011;14721;42.668;23.386;2023-04-15T06:01:48;5.88;;;2.80;;
27209;SDS011;14721;42.668;23.386;2023-04-15T06:04:18;4.07;;;2.45;;
27209;SDS011;14721;42.668;23.386;2023-04-15T06:06:47;5.10;;;2.97;;
27209;SDS011;14721;42.668;23.386;2023-04-15T06:09:15;4.72;;;2.05;;
27209;SDS011;14721;42.668;23.386;2023-04-15T06:11:44;5.00;;;1.85;;
27209;SDS011;14721;42.668;23.386;2023-04-15T06:14:09;6.93;;;2.22;;
27209;SDS011;14721;42.668;23.386;2023-04-15T06:16:35;8.63;;;2.25;;
27209;SDS011;14721;42.668;23.386;2023-04-15T06:19:03;5.72;;;1.83;;
27209;SDS011;14721;42.668;23.386;2023-04-15T06:21:29;5.47;;;1.75;;
27209;SDS011;14721;42.668;23.386;2023-04-15T06:23:55;5.10;;;2.58;;
27209;SDS011;14721;42.668;23.386;2023-04-15T06:26:21;7.22;;;2.83;;
27209;SDS011;14721;42.668;23.386;2023-04-15T06:28:46;7.68;;;2.67;;
27209;SDS011;14721;42.668;23.386;2023-04-15T06:31:12;5.45;;;2.47;;
27209;SDS011;14721;42.668;23.386;2023-04-15T06:33:38;4.32;;;2.55;;
27209;SDS011;14721;42.668;23.386;2023-04-15T06:36:03;5.05;;;2.20;;
27209;SDS011;14721;42.668;23.386;2023-04-15T06:38:29;7.72;;;2.55;;
27209;SDS011;14721;42.668;23.386;2023-04-15T06:40:55;4.00;;;2.13;;
27209;SDS011;14721;42.668;23.386;2023-04-15T06:43:20;3.83;;;2.10;;
27209;SDS011;14721;42.668;23.386;2023-04-15T06:45:46;7.63;;;2.30;;
27209;SDS011;14721;42.668;23.386;2023-04-15T06:48:11;7.80;;;2.30;;
27209;SDS011;14721;42.668;23.386;2023-04-15T06:50:38;2.53;;;1.60;;
27209;SDS011;14721;42.668;23.386;2023-04-15T06:53:04;4.25;;;1.92;;
27209;SDS011;14721;42.668;23.386;2023-04-15T06:55:32;3.38;;;1.77;;
27209;SDS011;14721;42.668;23.386;2023-04-15T06:57:58;3.00;;;1.88;;
27209;SDS011;14721;42.668;23.386;2023-04-15T07:00:23;3.13;;;1.73;;
27209;SDS011;14721;42.668;23.386;2023-04-15T07:02:49;5.13;;;1.95;;
27209;SDS011;14721;42.668;23.386;2023-04-15T07:05:15;2.97;;;1.63;;
27209;SDS011;14721;42.668;23.386;2023-04-15T07:07:41;6.20;;;1.58;;
27209;SDS011;14721;42.668;23.386;2023-04-15T07:10:07;11.55;;;2.10;;
27209;SDS011;14721;42.668;23.386;2023-04-15T07:12:32;3.10;;;1.90;;
27209;SDS011;14721;42.668;23.386;2023-04-15T07:14:59;5.18;;;1.80;;
27209;SDS011;14721;42.668;23.386;2023-04-15T07:17:25;4.05;;;1.55;;
27209;SDS011;14721;42.668;23.386;2023-04-15T07:19:51;7.30;;;1.83;;
27209;SDS011;14721;42.668;23.386;2023-04-15T07:22:16;3.28;;;1.77;;
27209;SDS011;14721;42.668;23.386;2023-04-15T07:24:42;3.95;;;1.73;;
27209;SDS011;14721;42.668;23.386;2023-04-15T07:27:07;5.00;;;2.03;;
27209;SDS011;14721;42.668;23.386;2023-04-15T07:29:33;7.97;;;2.30;;
27209;SDS011;14721;42.668;23.386;2023-04-15T07:31:58;3.92;;;1.85;;
27209;SDS011;14721;42.668;23.386;2023-04-15T07:34:24;4.78;;;1.83;;
27209;SDS011;14721;42.668;23.386;2023-04-15T07:36:49;7.30;;;2.05;;
27209;SDS011;14721;42.668;23.386;2023-04-15T07:39:16;6.63;;;1.92;;
27209;SDS011;14721;42.668;23.386;2023-04-15T07:41:42;9.15;;;3.22;;
27209;SDS011;14721;42.668;23.386;2023-04-15T07:44:07;3.90;;;2.05;;
27209;SDS011;14721;42.668;23.386;2023-04-15T07:46:33;5.78;;;1.98;;
27209;SDS011;14721;42.668;23.386;2023-04-15T07:48:59;5.28;;;2.20;;
27209;SDS011;14721;42.668;23.386;2023-04-15T07:51:24;4.50;;;2.03;;
27209;SDS011;14721;42.668;23.386;2023-04-15T07:53:50;3.80;;;2.35;;
27209;SDS011;14721;42.668;23.386;2023-04-15T07:56:15;3.50;;;1.88;;
27209;SDS011;14721;42.668;23.386;2023-04-15T07:58:41;4.57;;;2.08;;
27209;SDS011;14721;42.668;23.386;2023-04-15T08:01:07;9.27;;;2.30;;
27209;SDS011;14721;42.668;23.386;2023-04-15T08:03:33;4.32;;;2.20;;
27209;SDS011;14721;42.668;23.386;2023-04-15T08:05:58;8.63;;;2.42;;
27209;SDS011;14721;42.668;23.386;2023-04-15T08:08:24;4.55;;;2.38;;
27209;SDS011;14721;42.668;23.386;2023-04-15T08:10:50;7.90;;;1.90;;
27209;SDS011;14721;42.668;23.386;2023-04-15T08:13:16;4.18;;;2.10;;
27209;SDS011;14721;42.668;23.386;2023-04-15T08:15:42;5.18;;;2.13;;
27209;SDS011;14721;42.668;23.386;2023-04-15T08:18:07;11.18;;;4.25;;
27209;SDS011;14721;42.668;23.386;2023-04-15T08:20:33;3.55;;;2.00;;
27209;SDS011;14721;42.668;23.386;2023-04-15T08:22:58;3.65;;;1.95;;
27209;SDS011;14721;42.668;23.386;2023-04-15T08:25:24;4.50;;;2.15;;
27209;SDS011;14721;42.668;23.386;2023-04-15T08:27:49;5.45;;;2.10;;
27209;SDS011;14721;42.668;23.386;2023-04-15T08:30:15;2.60;;;1.58;;
27209;SDS011;14721;42.668;23.386;2023-04-15T08:32:41;3.80;;;2.15;;
27209;SDS011;14721;42.668;23.386;2023-04-15T08:35:11;7.05;;;2.65;;
27209;SDS011;14721;42.668;23.386;2023-04-15T08:37:37;3.55;;;1.90;;
27209;SDS011;14721;42.668;23.386;2023-04-15T08:40:03;5.70;;;2.50;;
27209;SDS011;14721;42.668;23.386;2023-04-15T08:42:35;5.93;;;3.33;;
27209;SDS011;14721;42.668;23.386;2023-04-15T08:45:05;5.47;;;2.50;;
27209;SDS011;14721;42.668;23.386;2023-04-15T08:47:35;5.10;;;2.33;;
27209;SDS011;14721;42.668;23.386;2023-04-15T08:50:07;4.65;;;2.50;;
27209;SDS011;14721;42.668;23.386;2023-04-15T08:52:34;6.10;;;2.08;;
27209;SDS011;14721;42.668;23.386;2023-04-15T08:55:01;7.72;;;2.17;;
27209;SDS011;14721;42.668;23.386;2023-04-15T08:57:27;6.47;;;2.55;;
27209;SDS011;14721;42.668;23.386;2023-04-15T08:59:56;2.17;;;1.20;;
27209;SDS011;14721;42.668;23.386;2023-04-15T09:02:25;3.15;;;0.70;;
27209;SDS011;14721;42.668;23.386;2023-04-15T09:04:51;3.53;;;0.95;;
27209;SDS011;14721;42.668;23.386;2023-04-15T09:07:17;2.75;;;1.73;;
27209;SDS011;14721;42.668;23.386;2023-04-15T09:09:43;3.78;;;1.30;;
27209;SDS011;14721;42.668;23.386;2023-04-15T09:12:08;1.83;;;0.80;;
27209;SDS011;14721;42.668;23.386;2023-04-15T09:14:35;2.67;;;1.08;;
27209;SDS011;14721;42.668;23.386;2023-04-15T09:17:02;2.63;;;0.93;;
27209;SDS011;14721;42.668;23.386;2023-04-15T09:19:29;1.02;;;0.63;;
27209;SDS011;14721;42.668;23.386;2023-04-15T09:21:56;3.00;;;0.80;;
27209;SDS011;14721;42.668;23.386;2023-04-15T09:24:23;3.28;;;0.90;;
27209;SDS011;14721;42.668;23.386;2023-04-15T09:26:53;0.75;;;0.73;;
27209;SDS011;14721;42.668;23.386;2023-04-15T09:29:20;2.40;;;0.75;;
27209;SDS011;14721;42.668;23.386;2023-04-15T09:31:49;5.78;;;0.82;;
27209;SDS011;14721;42.668;23.386;2023-04-15T09:34:17;3.40;;;1.15;;
27209;SDS011;14721;42.668;23.386;2023-04-15T09:39:13;1.67;;;0.70;;
27209;SDS011;14721;42.668;23.386;2023-04-15T09:41:39;4.57;;;0.82;;
27209;SDS011;14721;42.668;23.386;2023-04-15T09:44:05;2.25;;;0.80;;
27209;SDS011;14721;42.668;23.386;2023-04-15T09:46:43;3.60;;;0.65;;
27209;SDS011;14721;42.668;23.386;2023-04-15T09:49:10;1.25;;;0.70;;
27209;SDS011;14721;42.668;23.386;2023-04-15T09:51:37;1.60;;;0.82;;
27209;SDS011;14721;42.668;23.386;2023-04-15T09:54:03;3.70;;;0.95;;
27209;SDS011;14721;42.668;23.386;2023-04-15T09:56:36;6.45;;;1.30;;
27209;SDS011;14721;42.668;23.386;2023-04-15T09:59:05;4.57;;;1.33;;
27209;SDS011;14721;42.668;23.386;2023-04-15T10:01:34;4.90;;;0.75;;
27209;SDS011;14721;42.668;23.386;2023-04-15T10:04:03;2.72;;;1.20;;
27209;SDS011;14721;42.668;23.386;2023-04-15T10:06:29;3.70;;;0.93;;
27209;SDS011;14721;42.668;23.386;2023-04-15T10:08:56;5.55;;;1.30;;
27209;SDS011;14721;42.668;23.386;2023-04-15T10:11:22;3.63;;;1.17;;
27209;SDS011;14721;42.668;23.386;2023-04-15T10:13:49;0.98;;;0.60;;
27209;SDS011;14721;42.668;23.386;2023-04-15T10:16:16;1.80;;;1.10;;
27209;SDS011;14721;42.668;23.386;2023-04-15T10:18:48;2.47;;;1.00;;
27209;SDS011;14721;42.668;23.386;2023-04-15T10:21:18;2.88;;;1.00;;
27209;SDS011;14721;42.668;23.386;2023-04-15T10:23:46;5.68;;;0.88;;
27209;SDS011;14721;42.668;23.386;2023-04-15T10:26:12;2.20;;;0.88;;
27209;SDS011;14721;42.668;23.386;2023-04-15T10:28:41;2.60;;;0.90;;
27209;SDS011;14721;42.668;23.386;2023-04-15T10:31:12;1.08;;;0.60;;
27209;SDS011;14721;42.668;23.386;2023-04-15T10:33:42;0.90;;;0.57;;
27209;SDS011;14721;42.668;23.386;2023-04-15T10:36:08;1.55;;;0.85;;
27209;SDS011;14721;42.668;23.386;2023-04-15T10:41:22;4.20;;;1.00;;
27209;SDS011;14721;42.668;23.386;2023-04-15T10:43:51;3.40;;;0.80;;
27209;SDS011;14721;42.668;23.386;2023-04-15T10:46:40;1.60;;;0.85;;
27209;SDS011;14721;42.668;23.386;2023-04-15T10:49:10;3.42;;;1.20;;
27209;SDS011;14721;42.668;23.386;2023-04-15T10:51:37;0.88;;;0.70;;
27209;SDS011;14721;42.668;23.386;2023-04-15T10:56:41;2.40;;;1.08;;
27209;SDS011;14721;42.668;23.386;2023-04-15T10:59:08;2.28;;;0.95;;
27209;SDS011;14721;42.668;23.386;2023-04-15T11:04:56;1.88;;;0.90;;
27209;SDS011;14721;42.668;23.386;2023-04-15T11:07:34;3.35;;;0.90;;
27209;SDS011;14721;42.668;23.386;2023-04-15T11:10:05;2.45;;;0.90;;
27209;SDS011;14721;42.668;23.386;2023-04-15T11:15:39;3.15;;;0.77;;
27209;SDS011;14721;42.668;23.386;2023-04-15T11:20:49;1.95;;;0.80;;
27209;SDS011;14721;42.668;23.386;2023-04-15T11:23:18;3.50;;;1.13;;
27209;SDS011;14721;42.668;23.386;2023-04-15T11:25:51;2.55;;;0.73;;
27209;SDS011;14721;42.668;23.386;2023-04-15T11:28:19;2.63;;;0.85;;
27209;SDS011;14721;42.668;23.386;2023-04-15T11:30:44;2.97;;;0.90;;
27209;SDS011;14721;42.668;23.386;2023-04-15T11:33:10;1.42;;;0.65;;
27209;SDS011;14721;42.668;23.386;2023-04-15T11:35:36;1.35;;;0.55;;
27209;SDS011;14721;42.668;23.386;2023-04-15T11:38:12;2.83;;;1.00;;
27209;SDS011;14721;42.668;23.386;2023-04-15T11:40:38;2.75;;;1.02;;
27209;SDS011;14721;42.668;23.386;2023-04-15T11:43:12;2.90;;;0.95;;
27209;SDS011;14721;42.668;23.386;2023-04-15T11:48:13;1.88;;;0.77;;
27209;SDS011;14721;42.668;23.386;2023-04-15T11:50:39;1.85;;;0.80;;
27209;SDS011;14721;42.668;23.386;2023-04-15T11:53:05;2.17;;;0.98;;
27209;SDS011;14721;42.668;23.386;2023-04-15T11:55:46;2.75;;;0.88;;
27209;SDS011;14721;42.668;23.386;2023-04-15T12:00:40;2.42;;;0.80;;
27209;SDS011;14721;42.668;23.386;2023-04-15T12:11:14;2.80;;;1.08;;
27209;SDS011;14721;42.668;23.386;2023-04-15T12:13:47;6.28;;;2.83;;
27209;SDS011;14721;42.668;23.386;2023-04-15T12:16:20;2.33;;;0.70;;
27209;SDS011;14721;42.668;23.386;2023-04-15T12:18:50;4.38;;;0.73;;
27209;SDS011;14721;42.668;23.386;2023-04-15T12:21:27;3.28;;;0.82;;
27209;SDS011;14721;42.668;23.386;2023-04-15T12:24:00;1.60;;;0.70;;
27209;SDS011;14721;42.668;23.386;2023-04-15T12:29:07;2.35;;;0.70;;
27209;SDS011;14721;42.668;23.386;2023-04-15T12:31:34;2.33;;;0.50;;
27209;SDS011;14721;42.668;23.386;2023-04-15T12:34:03;5.25;;;0.80;;
27209;SDS011;14721;42.668;23.386;2023-04-15T12:36:31;1.70;;;0.57;;
27209;SDS011;14721;42.668;23.386;2023-04-15T12:39:01;2.35;;;0.50;;
27209;SDS011;14721;42.668;23.386;2023-04-15T12:41:28;1.60;;;0.60;;
27209;SDS011;14721;42.668;23.386;2023-04-15T12:43:53;1.80;;;0.50;;
27209;SDS011;14721;42.668;23.386;2023-04-15T12:46:19;0.77;;;0.52;;
27209;SDS011;14721;42.668;23.386;2023-04-15T12:48:45;1.73;;;0.60;;
27209;SDS011;14721;42.668;23.386;2023-04-15T12:51:12;1.38;;;0.70;;
27209;SDS011;14721;42.668;23.386;2023-04-15T12:53:38;4.05;;;1.15;;
27209;SDS011;14721;42.668;23.386;2023-04-15T12:56:04;1.52;;;0.47;;
27209;SDS011;14721;42.668;23.386;2023-04-15T12:58:30;1.40;;;0.77;;
27209;SDS011;14721;42.668;23.386;2023-04-15T13:00:56;3.65;;;0.98;;
27209;SDS011;14721;42.668;23.386;2023-04-15T13:03:21;0.57;;;0.35;;
27209;SDS011;14721;42.668;23.386;2023-04-15T13:05:47;1.70;;;0.77;;
27209;SDS011;14721;42.668;23.386;2023-04-15T13:08:12;2.15;;;0.80;;
27209;SDS011;14721;42.668;23.386;2023-04-15T13:10:38;2.85;;;0.65;;
27209;SDS011;14721;42.668;23.386;2023-04-15T13:13:04;2.10;;;0.82;;
27209;SDS011;14721;42.668;23.386;2023-04-15T13:15:29;2.92;;;0.50;;
27209;SDS011;14721;42.668;23.386;2023-04-15T13:17:55;5.45;;;0.73;;
27209;SDS011;14721;42.668;23.386;2023-04-15T13:20:21;0.70;;;0.35;;
27209;SDS011;14721;42.668;23.386;2023-04-15T13:22:46;3.95;;;0.95;;
27209;SDS011;14721;42.668;23.386;2023-04-15T13:25:12;1.83;;;0.70;;
27209;SDS011;14721;42.668;23.386;2023-04-15T13:27:37;2.13;;;0.80;;
27209;SDS011;14721;42.668;23.386;2023-04-15T13:30:05;1.65;;;0.57;;
27209;SDS011;14721;42.668;23.386;2023-04-15T13:32:31;1.27;;;0.63;;
27209;SDS011;14721;42.668;23.386;2023-04-15T13:34:57;1.35;;;0.40;;
27209;SDS011;14721;42.668;23.386;2023-04-15T13:37:26;2.80;;;1.05;;
27209;SDS011;14721;42.668;23.386;2023-04-15T13:39:53;2.05;;;0.93;;
27209;SDS011;14721;42.668;23.386;2023-04-15T13:42:20;2.28;;;0.50;;
27209;SDS011;14721;42.668;23.386;2023-04-15T13:44:46;2.28;;;0.63;;
27209;SDS011;14721;42.668;23.386;2023-04-15T13:47:11;0.63;;;0.40;;
27209;SDS011;14721;42.668;23.386;2023-04-15T13:49:39;1.90;;;0.63;;
27209;SDS011;14721;42.668;23.386;2023-04-15T13:52:05;0.88;;;0.47;;
27209;SDS011;14721;42.668;23.386;2023-04-15T13:54:30;2.83;;;0.70;;
27209;SDS011;14721;42.668;23.386;2023-04-15T13:56:55;2.55;;;0.50;;
27209;SDS011;14721;42.668;23.386;2023-04-15T13:59:22;2.63;;;1.13;;
27209;SDS011;14721;42.668;23.386;2023-04-15T14:01:47;1.27;;;0.68;;
27209;SDS011;14721;42.668;23.386;2023-04-15T14:04:13;0.95;;;0.30;;
27209;SDS011;14721;42.668;23.386;2023-04-15T14:06:38;1.10;;;0.47;;
27209;SDS011;14721;42.668;23.386;2023-04-15T14:09:04;1.95;;;1.10;;
27209;SDS011;14721;42.668;23.386;2023-04-15T14:11:29;3.90;;;1.52;;
27209;SDS011;14721;42.668;23.386;2023-04-15T14:13:55;2.65;;;0.60;;
27209;SDS011;14721;42.668;23.386;2023-04-15T14:16:21;1.38;;;0.57;;
27209;SDS011;14721;42.668;23.386;2023-04-15T14:18:46;0.35;;;0.30;;
27209;SDS011;14721;42.668;23.386;2023-04-15T14:21:12;1.50;;;0.55;;
27209;SDS011;14721;42.668;23.386;2023-04-15T14:23:37;4.05;;;1.00;;
27209;SDS011;14721;42.668;23.386;2023-04-15T14:26:03;2.42;;;0.60;;
27209;SDS011;14721;42.668;23.386;2023-04-15T14:28:28;1.17;;;0.82;;
27209;SDS011;14721;42.668;23.386;2023-04-15T14:30:54;3.22;;;1.13;;
27209;SDS011;14721;42.668;23.386;2023-04-15T14:33:19;2.67;;;1.00;;
27209;SDS011;14721;42.668;23.386;2023-04-15T14:35:45;3.65;;;1.00;;
27209;SDS011;14721;42.668;23.386;2023-04-15T14:38:10;1.33;;;0.50;;
27209;SDS011;14721;42.668;23.386;2023-04-15T14:40:36;2.50;;;0.90;;
27209;SDS011;14721;42.668;23.386;2023-04-15T14:43:02;2.58;;;0.52;;
27209;SDS011;14721;42.668;23.386;2023-04-15T14:45:27;1.63;;;0.73;;
27209;SDS011;14721;42.668;23.386;2023-04-15T14:47:55;4.45;;;1.95;;
27209;SDS011;14721;42.668;23.386;2023-04-15T14:50:21;5.35;;;2.13;;
27209;SDS011;14721;42.668;23.386;2023-04-15T14:52:46;2.58;;;1.02;;
27209;SDS011;14721;42.668;23.386;2023-04-15T14:55:12;2.95;;;1.00;;
27209;SDS011;14721;42.668;23.386;2023-04-15T14:57:38;1.42;;;0.47;;
27209;SDS011;14721;42.668;23.386;2023-04-15T15:00:06;2.38;;;0.82;;
27209;SDS011;14721;42.668;23.386;2023-04-15T15:02:32;4.65;;;0.88;;